Time;durP1;ratioP1;P1;durP2;ratioP2;P2;SDS_P1;SDS_P2;PMS_P1;PMS_P2;Temp;Humidity;BMP_temperature;BMP_pressure;BME280_temperature;BME280_humidity;BME280_pressure;Samples;Min_cycle;Max_cycle;Signal;HPM_P1;HPM_P2
2023/11/23 00:00:01;;;;;;;23.03;6.90;;;6.70;99.90;;;;;;1908998;75;25345;-90
2023/11/23 00:02:50;;;;;;;17.37;7.03;;;6.70;99.90;;;;;;1913268;75;25289;-90
2023/11/23 00:05:39;;;;;;;19.53;7.90;;;6.60;99.90;;;;;;1929580;73;25297;-90
2023/11/23 00:08:27;;;;;;;13.90;5.17;;;6.70;99.90;;;;;;1912427;73;25763;-90
2023/11/23 00:11:16;;;;;;;24.20;7.20;;;6.70;99.90;;;;;;1908881;73;25325;-90
2023/11/23 00:14:05;;;;;;;25.57;8.77;;;6.70;99.90;;;;;;1902321;73;25608;-90
2023/11/23 00:19:32;;;;;;;23.43;8.63;;;6.60;99.90;;;;;;1934904;72;27564;-88
2023/11/23 00:22:22;;;;;;;23.30;7.50;;;6.60;99.90;;;;;;1894090;75;25731;-88
2023/11/23 00:25:14;;;;;;;25.00;8.80;;;6.60;99.90;;;;;;1895885;73;25242;-91
2023/11/23 00:28:00;;;;;;;22.07;8.87;;;6.60;99.90;;;;;;1853622;76;25308;-89
2023/11/23 00:30:49;;;;;;;18.57;7.70;;;6.60;99.90;;;;;;1845585;77;25319;-89
2023/11/23 00:33:38;;;;;;;23.70;6.30;;;6.60;99.90;;;;;;1850380;76;25271;-90
2023/11/23 00:36:26;;;;;;;14.77;5.43;;;6.60;99.90;;;;;;1851063;76;25165;-90
2023/11/23 00:39:15;;;;;;;17.80;4.50;;;6.70;99.90;;;;;;1922349;73;25219;-90
2023/11/23 00:42:04;;;;;;;17.07;4.10;;;6.70;99.90;;;;;;1904593;73;25211;-90
2023/11/23 00:47:44;;;;;;;17.60;6.10;;;6.60;99.90;;;;;;1947020;72;27088;-90
2023/11/23 00:50:32;;;;;;;19.43;4.93;;;6.60;99.90;;;;;;1943480;72;25488;-90
2023/11/23 00:53:21;;;;;;;36.00;8.17;;;6.70;99.90;;;;;;1930586;73;25866;-90
2023/11/23 00:56:10;;;;;;;19.93;6.37;;;6.70;99.90;;;;;;1924844;73;25768;-90
2023/11/23 00:58:59;;;;;;;16.80;5.53;;;6.80;99.90;;;;;;1930654;73;25991;-90
2023/11/23 01:04:31;;;;;;;12.67;4.23;;;6.80;99.90;;;;;;1945206;72;27159;-90
2023/11/23 01:07:20;;;;;;;19.23;6.27;;;6.90;99.90;;;;;;1899461;73;25284;-90
2023/11/23 01:10:10;;;;;;;11.67;4.23;;;6.90;99.90;;;;;;1918891;73;25171;-90
2023/11/23 01:12:59;;;;;;;24.43;4.50;;;6.90;99.90;;;;;;1858273;76;25237;-91
2023/11/23 01:15:48;;;;;;;12.27;2.60;;;7.00;99.90;;;;;;1812588;78;25262;-90
2023/11/23 01:18:37;;;;;;;9.97;2.50;;;7.10;99.90;;;;;;1911688;73;25682;-90
2023/11/23 01:21:26;;;;;;;10.00;3.27;;;7.10;99.90;;;;;;1869045;76;25362;-90
2023/11/23 01:24:15;;;;;;;13.27;3.73;;;7.10;99.90;;;;;;1831890;76;25260;-90
2023/11/23 01:34:42;;;;;;;12.83;2.70;;;7.10;99.90;;;;;;2030351;69;27094;-90
2023/11/23 01:37:31;;;;;;;8.40;2.07;;;7.10;99.90;;;;;;1998956;71;25279;-89
2023/11/23 01:40:20;;;;;;;10.93;3.47;;;7.10;99.90;;;;;;1985996;70;25269;-89
2023/11/23 01:43:09;;;;;;;9.97;3.07;;;7.10;99.90;;;;;;1980397;71;25185;-89
2023/11/23 01:45:58;;;;;;;15.97;5.10;;;7.10;99.90;;;;;;1996624;71;25210;-89
2023/11/23 01:48:46;;;;;;;19.67;5.63;;;7.10;99.90;;;;;;2004510;71;25248;-89
2023/11/23 01:51:35;;;;;;;13.90;4.00;;;7.00;99.90;;;;;;2003202;71;25268;-89
2023/11/23 01:54:24;;;;;;;13.43;3.97;;;7.00;99.90;;;;;;2004700;71;25244;-89
2023/11/23 01:57:15;;;;;;;21.37;3.77;;;7.00;99.90;;;;;;2000755;71;25322;-89
2023/11/23 02:00:06;;;;;;;19.93;4.00;;;7.00;99.90;;;;;;2013039;71;25236;-89
2023/11/23 02:02:55;;;;;;;16.43;4.20;;;7.00;99.90;;;;;;1982053;72;25867;-89
2023/11/23 02:05:44;;;;;;;16.93;3.03;;;7.00;99.90;;;;;;2016804;71;25242;-89
2023/11/23 02:08:34;;;;;;;8.63;2.00;;;7.00;99.90;;;;;;2004336;71;25578;-90
2023/11/23 02:11:23;;;;;;;11.03;2.70;;;7.10;99.90;;;;;;1993784;71;25245;-90
2023/11/23 02:14:12;;;;;;;6.90;1.57;;;7.00;99.90;;;;;;1999820;71;25258;-90
2023/11/23 02:19:53;;;;;;;13.97;2.77;;;7.00;99.90;;;;;;1950145;72;27474;-90
2023/11/23 02:22:42;;;;;;;18.70;3.40;;;7.00;99.90;;;;;;1918244;73;25470;-91
2023/11/23 02:25:31;;;;;;;16.27;2.27;;;7.00;99.90;;;;;;1919301;73;25312;-90
2023/11/23 02:28:20;;;;;;;20.03;2.73;;;7.00;99.90;;;;;;1919551;73;25807;-90
2023/11/23 02:31:09;;;;;;;15.50;2.93;;;7.00;99.90;;;;;;1915979;73;25320;-90
2023/11/23 02:33:57;;;;;;;17.10;2.70;;;7.00;99.90;;;;;;1921315;73;25264;-91
2023/11/23 02:36:48;;;;;;;20.10;5.40;;;7.00;99.90;;;;;;1916308;73;25259;-90
2023/11/23 02:39:37;;;;;;;20.07;6.30;;;7.00;99.90;;;;;;1917228;73;25255;-90
2023/11/23 02:42:26;;;;;;;24.50;6.80;;;7.00;99.90;;;;;;1924172;73;25299;-90
2023/11/23 02:45:15;;;;;;;19.23;4.13;;;7.00;99.90;;;;;;1900967;74;25207;-90
2023/11/23 02:52:52;;;;;;;31.93;8.27;;;7.10;99.90;;;;;;1987243;71;26337;-90
2023/11/23 02:55:41;;;;;;;17.90;6.80;;;7.10;99.90;;;;;;2024319;69;25136;-90
2023/11/23 02:58:30;;;;;;;26.93;7.80;;;7.10;99.90;;;;;;2019328;69;25760;-90
2023/11/23 03:01:18;;;;;;;22.90;5.70;;;7.10;99.90;;;;;;2018576;69;25178;-90
2023/11/23 03:04:07;;;;;;;8.60;2.87;;;7.00;99.90;;;;;;2032262;69;25225;-90
2023/11/23 03:06:55;;;;;;;15.53;2.73;;;7.10;99.90;;;;;;2018208;69;25143;-90
2023/11/23 03:09:44;;;;;;;11.00;1.67;;;7.10;99.90;;;;;;2021952;70;25159;-90
2023/11/23 03:12:32;;;;;;;13.37;2.03;;;7.00;99.90;;;;;;2030982;69;25221;-91
2023/11/23 03:15:21;;;;;;;12.60;1.63;;;7.00;99.90;;;;;;2007107;70;25217;-91
2023/11/23 03:18:09;;;;;;;10.57;2.00;;;6.90;99.90;;;;;;2029925;70;25271;-90
2023/11/23 03:20:58;;;;;;;11.40;1.63;;;6.90;99.90;;;;;;2031851;69;25748;-90
2023/11/23 03:23:47;;;;;;;7.73;1.73;;;6.80;99.90;;;;;;2024908;70;25143;-90
2023/11/23 03:29:54;;;;;;;10.90;2.13;;;6.80;99.90;;;;;;1964289;72;26322;-90
2023/11/23 03:32:43;;;;;;;18.30;1.90;;;6.90;99.90;;;;;;1928783;73;25261;-90
2023/11/23 03:35:31;;;;;;;12.30;2.07;;;6.80;99.90;;;;;;1944252;72;25707;-90
2023/11/23 03:38:20;;;;;;;9.43;1.90;;;6.80;99.90;;;;;;1915211;74;25260;-90
2023/11/23 03:44:23;;;;;;;9.47;1.60;;;6.80;99.90;;;;;;1971406;71;27105;-90
2023/11/23 03:47:11;;;;;;;11.90;1.80;;;6.80;99.90;;;;;;1932842;73;25264;-90
2023/11/23 03:49:59;;;;;;;9.20;1.97;;;6.80;99.90;;;;;;2004471;70;25201;-90
2023/11/23 03:52:48;;;;;;;13.27;1.83;;;6.80;99.90;;;;;;2012046;70;25145;-90
2023/11/23 03:55:37;;;;;;;10.60;2.23;;;6.80;99.90;;;;;;2011377;70;25716;-90
2023/11/23 03:58:25;;;;;;;22.70;2.10;;;6.70;99.90;;;;;;2016864;70;25205;-90
2023/11/23 04:01:13;;;;;;;13.07;1.67;;;6.80;99.90;;;;;;2020226;70;25583;-90
2023/11/23 04:04:02;;;;;;;8.90;1.50;;;6.80;99.90;;;;;;2001686;70;25142;-90
2023/11/23 04:06:51;;;;;;;15.87;2.30;;;6.90;99.90;;;;;;1998605;70;25141;-90
2023/11/23 04:09:39;;;;;;;8.97;1.50;;;6.90;99.90;;;;;;2017328;70;25308;-91
2023/11/23 04:12:28;;;;;;;8.23;1.30;;;6.90;99.90;;;;;;2002648;70;25218;-90
2023/11/23 04:15:17;;;;;;;17.03;2.13;;;6.90;99.90;;;;;;2011036;70;25214;-90
2023/11/23 04:18:06;;;;;;;5.90;1.47;;;6.90;99.90;;;;;;2010778;70;25174;-90
2023/11/23 04:20:55;;;;;;;13.50;1.83;;;7.00;99.90;;;;;;2014987;70;25280;-90
2023/11/23 04:26:27;;;;;;;9.63;1.33;;;7.10;99.90;;;;;;1928431;72;27726;-89
2023/11/23 04:29:16;;;;;;;9.33;1.87;;;7.10;99.90;;;;;;1894133;74;25233;-89
2023/11/23 04:32:07;;;;;;;9.70;1.70;;;7.00;99.90;;;;;;1848365;76;25814;-89
2023/11/23 04:34:55;;;;;;;7.67;1.67;;;7.00;99.90;;;;;;1827986;77;25227;-88
2023/11/23 04:37:45;;;;;;;6.67;1.70;;;7.10;99.90;;;;;;1865780;76;25267;-89
2023/11/23 04:40:33;;;;;;;9.40;1.80;;;7.00;99.90;;;;;;1850998;77;25766;-89
2023/11/23 04:43:21;;;;;;;13.23;2.00;;;7.00;99.90;;;;;;1864864;76;25293;-89
2023/11/23 04:46:10;;;;;;;14.10;1.90;;;7.00;99.90;;;;;;1839690;77;25233;-89
2023/11/23 04:48:59;;;;;;;7.50;1.40;;;7.00;99.90;;;;;;1821020;79;25228;-89
2023/11/23 04:51:48;;;;;;;13.23;2.03;;;6.90;99.90;;;;;;1880106;74;25253;-89
2023/11/23 04:54:36;;;;;;;11.93;1.60;;;6.90;99.90;;;;;;1845951;78;25700;-89
2023/11/23 04:57:25;;;;;;;9.60;1.67;;;6.80;99.90;;;;;;1782557;78;25722;-89
2023/11/23 05:00:16;;;;;;;14.40;1.57;;;6.80;99.90;;;;;;1835718;78;25373;-89
2023/11/23 05:03:05;;;;;;;7.47;1.73;;;6.80;99.90;;;;;;1842796;78;25252;-89
2023/11/23 05:23:50;;;;;;;5.43;1.10;;;6.60;99.90;;;;;;1944591;72;27095;-91
2023/11/23 05:26:39;;;;;;;5.83;1.43;;;6.70;99.90;;;;;;1922704;73;26558;-88
2023/11/23 05:45:33;;;;;;;5.70;1.00;;;6.70;99.90;;;;;;1944815;72;26903;-91
2023/11/23 05:48:22;;;;;;;9.60;1.67;;;6.60;99.90;;;;;;1928329;73;25211;-90
2023/11/23 05:51:11;;;;;;;6.13;1.13;;;6.70;99.90;;;;;;1929748;73;25207;-91
2023/11/23 05:53:59;;;;;;;5.33;1.10;;;6.60;99.90;;;;;;1928257;73;25256;-90
2023/11/23 06:12:36;;;;;;;9.57;1.27;;;6.60;99.90;;;;;;1923092;72;27185;-91
2023/11/23 06:15:33;;;;;;;2.17;0.93;;;6.50;99.90;;;;;;1832699;76;25271;-91
2023/11/23 06:21:16;;;;;;;7.47;1.70;;;6.60;99.90;;;;;;1946776;72;27025;-91
2023/11/23 06:24:07;;;;;;;4.63;0.90;;;6.50;99.90;;;;;;1900834;75;25218;-91
2023/11/23 06:26:55;;;;;;;1.43;0.50;;;6.50;99.90;;;;;;1895599;75;25761;-91
2023/11/23 06:29:45;;;;;;;5.50;1.23;;;6.50;99.90;;;;;;1889953;75;25221;-89
2023/11/23 06:32:35;;;;;;;3.87;0.63;;;6.50;99.90;;;;;;1859420;76;25193;-90
2023/11/23 06:38:08;;;;;;;6.57;1.40;;;6.40;99.90;;;;;;1930529;74;27269;-91
2023/11/23 06:40:58;;;;;;;5.53;1.50;;;6.40;99.90;;;;;;1916387;75;25254;-91
2023/11/23 06:43:46;;;;;;;6.73;1.87;;;6.30;99.90;;;;;;1894157;75;25345;-91
2023/11/23 06:46:35;;;;;;;6.17;1.80;;;6.40;99.90;;;;;;1884703;75;25785;-91
2023/11/23 06:49:24;;;;;;;7.73;2.57;;;6.40;99.90;;;;;;1873238;75;25677;-91
2023/11/23 06:52:14;;;;;;;5.30;1.60;;;6.30;99.90;;;;;;1883210;75;25527;-90
2023/11/23 06:55:05;;;;;;;14.87;3.70;;;6.30;99.90;;;;;;1868820;74;25178;-91
2023/11/23 06:57:54;;;;;;;11.80;3.17;;;6.30;99.90;;;;;;1869501;75;25283;-90
2023/11/23 07:00:43;;;;;;;6.00;2.10;;;6.20;99.90;;;;;;1872840;75;25207;-91
2023/11/23 07:06:50;;;;;;;7.33;2.50;;;6.20;99.90;;;;;;2037033;70;26396;-91
2023/11/23 07:09:40;;;;;;;7.17;2.47;;;6.20;99.90;;;;;;1912729;73;25751;-90
2023/11/23 07:12:29;;;;;;;12.33;4.50;;;6.20;99.90;;;;;;1907923;73;25262;-90
2023/11/23 07:15:17;;;;;;;9.73;4.47;;;6.10;99.90;;;;;;1943402;72;25713;-90
2023/11/23 07:18:06;;;;;;;15.20;6.27;;;6.10;99.90;;;;;;1942232;73;25661;-91
2023/11/23 07:24:10;;;;;;;5.60;2.57;;;6.10;99.90;;;;;;1957038;73;27150;-88
2023/11/23 07:26:58;;;;;;;8.87;3.23;;;6.20;99.90;;;;;;1955807;72;25316;-90
2023/11/23 07:29:46;;;;;;;6.43;2.33;;;6.20;99.90;;;;;;1943840;73;25308;-91
2023/11/23 07:32:36;;;;;;;3.67;1.47;;;6.30;99.90;;;;;;1965794;73;25152;-91
2023/11/23 07:35:26;;;;;;;5.17;2.50;;;6.30;99.90;;;;;;1946058;73;25232;-90
2023/11/23 07:38:15;;;;;;;9.40;3.80;;;6.30;99.90;;;;;;1969277;72;25254;-91
2023/11/23 07:41:04;;;;;;;14.07;5.50;;;6.40;99.90;;;;;;1919072;73;25604;-91
2023/11/23 07:43:57;;;;;;;9.30;4.40;;;6.40;99.90;;;;;;1929594;74;25234;-91
2023/11/23 07:46:44;;;;;;;14.27;4.57;;;6.50;99.90;;;;;;1962192;72;25203;-90
2023/11/23 07:49:35;;;;;;;9.43;4.07;;;6.50;99.90;;;;;;1938496;74;25193;-90
2023/11/23 07:52:24;;;;;;;9.97;4.00;;;6.40;99.90;;;;;;1939439;72;25814;-90
2023/11/23 07:58:58;;;;;;;17.90;6.70;;;6.30;99.90;;;;;;1971525;71;27053;-89
2023/11/23 08:01:47;;;;;;;21.57;5.43;;;6.30;99.90;;;;;;1986411;70;25619;-90
2023/11/23 08:04:36;;;;;;;13.30;5.40;;;6.30;99.90;;;;;;2008330;70;25302;-91
2023/11/23 08:07:25;;;;;;;13.07;4.83;;;6.30;99.90;;;;;;1973488;72;25195;-90
2023/11/23 08:10:15;;;;;;;11.93;4.13;;;6.30;99.90;;;;;;1991891;70;25207;-91
2023/11/23 08:13:04;;;;;;;8.23;2.60;;;6.20;99.90;;;;;;1991596;70;25185;-90
2023/11/23 08:15:52;;;;;;;9.17;3.50;;;6.20;99.90;;;;;;1982704;72;25202;-91
2023/11/23 08:18:41;;;;;;;11.63;5.83;;;6.30;99.90;;;;;;1992032;70;25303;-91
2023/11/23 08:21:30;;;;;;;12.30;5.27;;;6.30;99.90;;;;;;1975486;70;25315;-90
2023/11/23 08:26:59;;;;;;;10.87;5.50;;;6.50;99.90;;;;;;1951509;72;27129;-88
2023/11/23 08:32:32;;;;;;;7.57;3.20;;;6.70;99.90;;;;;;1950966;72;27017;-88
2023/11/23 08:35:21;;;;;;;6.77;2.97;;;6.90;99.90;;;;;;1952246;72;25237;-90
2023/11/23 08:38:09;;;;;;;11.13;5.07;;;6.90;99.90;;;;;;1953451;73;25234;-90
2023/11/23 08:41:00;;;;;;;5.40;2.57;;;7.00;99.90;;;;;;1953689;72;25161;-90
2023/11/23 08:43:48;;;;;;;13.13;5.80;;;7.00;99.90;;;;;;1951217;72;25213;-91
2023/11/23 08:46:38;;;;;;;15.70;4.80;;;7.00;99.90;;;;;;1945552;72;25663;-90
2023/11/23 08:49:27;;;;;;;14.30;6.20;;;7.10;99.90;;;;;;1949791;72;25157;-88
2023/11/23 08:52:16;;;;;;;6.93;4.10;;;7.10;99.90;;;;;;1938952;73;25634;-90
2023/11/23 08:55:05;;;;;;;12.33;3.60;;;7.10;99.90;;;;;;1944032;72;25722;-90
2023/11/23 08:57:53;;;;;;;7.40;4.07;;;7.10;99.90;;;;;;1947035;72;25254;-90
2023/11/23 09:00:42;;;;;;;12.33;5.63;;;7.10;99.90;;;;;;1949420;72;25299;-91
2023/11/23 09:03:31;;;;;;;9.40;4.77;;;7.10;99.90;;;;;;1951917;73;25280;-90
2023/11/23 09:09:07;;;;;;;8.03;3.97;;;7.00;99.90;;;;;;1953796;72;27059;-88
2023/11/23 09:11:57;;;;;;;8.07;4.17;;;6.90;99.90;;;;;;1916931;73;25246;-90
2023/11/23 09:14:46;;;;;;;13.00;6.10;;;6.80;99.90;;;;;;1919667;73;25231;-90
2023/11/23 09:17:35;;;;;;;15.40;6.50;;;6.80;99.90;;;;;;1916233;73;25225;-91
2023/11/23 09:20:24;;;;;;;12.40;5.63;;;6.80;99.90;;;;;;1920961;73;25281;-90
2023/11/23 09:23:12;;;;;;;12.13;5.43;;;6.80;99.90;;;;;;1894816;73;25611;-90
2023/11/23 09:26:02;;;;;;;11.27;4.27;;;6.80;99.90;;;;;;1922964;73;25766;-90
2023/11/23 09:28:51;;;;;;;9.30;3.70;;;6.90;99.90;;;;;;1918097;73;25237;-89
2023/11/23 09:31:40;;;;;;;5.63;2.70;;;6.90;99.90;;;;;;1920439;73;25270;-90
2023/11/23 09:34:29;;;;;;;12.20;3.83;;;6.90;99.90;;;;;;1916454;75;25224;-90
2023/11/23 09:37:18;;;;;;;11.60;4.23;;;6.80;99.90;;;;;;1921760;73;25616;-90
2023/11/23 09:40:11;;;;;;;14.30;4.73;;;6.70;99.90;;;;;;1916416;73;25209;-90
2023/11/23 09:43:00;;;;;;;13.70;5.90;;;6.70;99.90;;;;;;1920441;73;25324;-90
2023/11/23 09:45:49;;;;;;;7.13;3.53;;;6.80;99.90;;;;;;1910256;75;25234;-90
2023/11/23 09:48:42;;;;;;;13.77;6.03;;;6.80;99.90;;;;;;1911910;75;25184;-91
2023/11/23 09:51:31;;;;;;;9.80;5.07;;;6.90;99.90;;;;;;1896930;75;25578;-90
2023/11/23 09:57:09;;;;;;;7.57;4.33;;;6.90;99.90;;;;;;1960531;72;27496;-90
2023/11/23 09:59:58;;;;;;;9.53;4.87;;;6.90;99.90;;;;;;1916483;73;25225;-90
2023/11/23 10:02:49;;;;;;;5.63;2.00;;;6.90;99.90;;;;;;1917976;73;25234;-91
2023/11/23 10:05:38;;;;;;;7.73;2.60;;;6.90;99.90;;;;;;1916440;73;25254;-89
2023/11/23 10:08:28;;;;;;;3.93;1.93;;;6.90;99.90;;;;;;1917614;73;25710;-89
2023/11/23 10:11:17;;;;;;;0.90;0.90;;;7.00;99.90;;;;;;1917554;73;26025;-89
2023/11/23 10:14:05;;;;;;;3.73;1.50;;;7.00;99.90;;;;;;1918716;73;25287;-89
2023/11/23 10:16:53;;;;;;;3.60;1.73;;;6.90;99.90;;;;;;1916368;73;25667;-89
2023/11/23 10:19:42;;;;;;;4.37;1.10;;;6.90;99.90;;;;;;1916975;73;25210;-89
2023/11/23 10:25:31;;;;;;;2.17;1.03;;;7.00;99.90;;;;;;1950198;72;27018;-90
2023/11/23 10:28:19;;;;;;;4.60;1.50;;;7.00;99.90;;;;;;1934241;73;25269;-91
2023/11/23 10:31:08;;;;;;;4.80;1.73;;;7.00;99.90;;;;;;1936956;72;25291;-91
2023/11/23 10:33:56;;;;;;;3.13;1.53;;;7.00;99.90;;;;;;1948370;73;25206;-91
2023/11/23 10:36:48;;;;;;;3.50;0.90;;;7.00;99.90;;;;;;1934725;72;25396;-90
2023/11/23 10:39:36;;;;;;;3.03;1.00;;;7.00;99.90;;;;;;1929757;73;25287;-90
2023/11/23 10:42:28;;;;;;;5.37;2.77;;;7.00;99.90;;;;;;1925046;72;25238;-90
2023/11/23 10:48:39;;;;;;;1.97;1.10;;;7.00;99.90;;;;;;1988211;71;27606;-90
2023/11/23 10:54:16;;;;;;;4.47;2.03;;;7.00;99.90;;;;;;1944014;72;27439;-90
2023/11/23 10:57:08;;;;;;;6.50;3.57;;;7.00;99.90;;;;;;1953647;72;25246;-88
2023/11/23 10:59:59;;;;;;;5.93;2.67;;;6.90;99.90;;;;;;1916614;73;25268;-90
2023/11/23 11:02:49;;;;;;;6.53;3.20;;;6.90;99.90;;;;;;1939039;72;25314;-91
2023/11/23 11:05:45;;;;;;;9.33;4.93;;;6.90;99.90;;;;;;1938271;73;25308;-90
2023/11/23 11:11:48;;;;;;;3.97;1.93;;;7.00;99.90;;;;;;1981047;71;27058;-89
2023/11/23 11:14:39;;;;;;;3.83;2.13;;;7.10;99.90;;;;;;2025904;69;25181;-89
2023/11/23 11:17:38;;;;;;;3.83;2.03;;;7.10;99.90;;;;;;2024886;70;25259;-90
2023/11/23 11:20:28;;;;;;;5.83;1.97;;;7.10;99.90;;;;;;2034694;69;25678;-90
2023/11/23 11:23:17;;;;;;;5.73;3.27;;;7.10;99.90;;;;;;2040877;69;25820;-90
2023/11/23 11:26:12;;;;;;;5.43;3.20;;;7.10;99.90;;;;;;2035797;69;25262;-90
2023/11/23 11:29:02;;;;;;;8.40;3.70;;;7.10;99.90;;;;;;2026973;69;25309;-90
2023/11/23 11:31:53;;;;;;;6.73;2.57;;;7.10;99.90;;;;;;2001640;70;25737;-89
2023/11/23 11:34:43;;;;;;;5.80;2.00;;;7.10;99.90;;;;;;2017866;70;25177;-89
2023/11/23 11:37:32;;;;;;;4.13;1.23;;;7.10;99.90;;;;;;2032917;70;25211;-90
2023/11/23 11:40:25;;;;;;;2.80;1.70;;;7.10;99.90;;;;;;2030919;69;25266;-90
2023/11/23 11:43:15;;;;;;;1.37;0.80;;;7.20;99.90;;;;;;2024332;69;25307;-90
2023/11/23 11:46:06;;;;;;;2.80;1.00;;;7.10;99.90;;;;;;2006766;70;25726;-90
2023/11/23 11:48:57;;;;;;;2.17;1.17;;;6.90;99.90;;;;;;1993419;70;25238;-90
2023/11/23 11:55:33;;;;;;;3.40;2.23;;;6.80;99.90;;;;;;1989504;71;26399;-89
2023/11/23 11:58:23;;;;;;;3.47;1.90;;;6.70;99.90;;;;;;1965482;72;25721;-91
2023/11/23 12:15:32;;;;;;;3.17;1.60;;;6.60;99.90;;;;;;1996330;71;27114;-91
2023/11/23 12:21:17;;;;;;;3.60;1.47;;;6.70;99.90;;;;;;1931103;72;27037;-90
2023/11/23 12:24:07;;;;;;;2.13;0.90;;;6.70;99.90;;;;;;1889020;75;25270;-90
2023/11/23 12:26:55;;;;;;;1.50;1.03;;;6.80;99.90;;;;;;1904436;75;25217;-90
2023/11/23 12:29:45;;;;;;;1.73;1.20;;;6.80;99.90;;;;;;1894887;75;25247;-91
2023/11/23 12:32:34;;;;;;;4.73;0.90;;;6.80;99.90;;;;;;1901777;75;25788;-91
2023/11/23 12:35:23;;;;;;;3.87;1.57;;;6.80;99.90;;;;;;1899861;75;25643;-91
2023/11/23 12:38:12;;;;;;;3.20;2.10;;;6.80;99.90;;;;;;1903666;75;25239;-91
2023/11/23 12:41:00;;;;;;;2.17;1.27;;;6.90;99.90;;;;;;1905677;75;25339;-90
2023/11/23 12:43:49;;;;;;;4.10;1.00;;;6.80;99.90;;;;;;1903068;74;25207;-91
2023/11/23 12:46:41;;;;;;;0.67;0.67;;;6.80;99.90;;;;;;1880308;76;25215;-90
2023/11/23 12:49:29;;;;;;;4.43;0.83;;;6.70;99.90;;;;;;1877216;76;25662;-90
2023/11/23 12:52:18;;;;;;;0.47;0.47;;;6.70;99.90;;;;;;1866095;74;25230;-90
2023/11/23 12:55:09;;;;;;;1.17;0.83;;;6.60;99.90;;;;;;1857773;76;25230;-91
2023/11/23 13:00:53;;;;;;;1.10;0.70;;;6.50;99.90;;;;;;1942242;72;26908;-91
2023/11/23 13:06:29;;;;;;;3.53;1.10;;;6.50;99.90;;;;;;1950531;72;27561;-91
2023/11/23 13:09:23;;;;;;;1.70;0.77;;;6.50;99.90;;;;;;1923471;73;25273;-91
2023/11/23 13:12:11;;;;;;;1.67;0.70;;;6.50;99.90;;;;;;1916688;73;25715;-90
2023/11/23 13:15:00;;;;;;;1.73;1.20;;;6.50;99.90;;;;;;1932666;73;25269;-90
2023/11/23 13:17:50;;;;;;;5.17;1.30;;;6.50;99.90;;;;;;1919050;73;25200;-90
2023/11/23 13:20:39;;;;;;;1.43;0.80;;;6.50;99.90;;;;;;1918770;73;25230;-90
2023/11/23 13:23:28;;;;;;;0.73;0.67;;;6.50;99.90;;;;;;1938405;73;25283;-90
2023/11/23 13:26:17;;;;;;;3.77;0.50;;;6.40;99.90;;;;;;1936197;73;25309;-89
2023/11/23 13:29:06;;;;;;;2.30;0.67;;;6.40;99.90;;;;;;1934780;73;25232;-90
2023/11/23 13:31:57;;;;;;;1.23;0.60;;;6.40;99.90;;;;;;1918018;73;25276;-89
2023/11/23 13:34:47;;;;;;;0.40;0.40;;;6.30;99.90;;;;;;1919766;73;25685;-89
2023/11/23 13:37:35;;;;;;;2.10;0.57;;;6.30;99.90;;;;;;1929900;73;25213;-90
2023/11/23 13:40:24;;;;;;;0.50;0.50;;;6.20;99.90;;;;;;1920369;73;25745;-90
2023/11/23 13:43:16;;;;;;;0.87;0.50;;;6.20;99.90;;;;;;1924343;73;25519;-90
2023/11/23 13:46:42;;;;;;;1.17;0.40;;;6.10;99.90;;;;;;1904215;74;25751;-90
2023/11/23 13:49:32;;;;;;;0.43;0.43;;;6.10;99.90;;;;;;1914715;74;25206;-90
2023/11/23 13:52:22;;;;;;;2.00;0.87;;;6.00;99.90;;;;;;1919339;73;25165;-90
2023/11/23 13:55:11;;;;;;;1.37;0.30;;;6.00;99.90;;;;;;1909961;73;25253;-90
2023/11/23 13:58:00;;;;;;;1.90;0.50;;;6.00;99.90;;;;;;1915069;73;25263;-90
2023/11/23 14:04:35;;;;;;;1.47;0.40;;;5.90;99.90;;;;;;1976785;71;26847;-91
2023/11/23 14:07:26;;;;;;;1.07;0.40;;;5.90;99.90;;;;;;2037341;69;25598;-91
2023/11/23 14:10:15;;;;;;;0.40;0.40;;;5.80;99.90;;;;;;2011302;69;25669;-90
2023/11/23 14:13:06;;;;;;;2.00;0.40;;;5.70;99.90;;;;;;2027859;69;25311;-91
2023/11/23 14:18:49;;;;;;;1.00;0.43;;;5.60;99.90;;;;;;1920757;74;28303;-90
2023/11/23 14:21:39;;;;;;;0.23;0.23;;;5.70;99.90;;;;;;1870639;75;25369;-91
2023/11/23 14:24:29;;;;;;;1.50;0.57;;;5.60;99.90;;;;;;1887491;75;25247;-91
2023/11/23 14:27:20;;;;;;;0.43;0.40;;;5.60;99.90;;;;;;1895889;74;25731;-91
2023/11/23 14:30:12;;;;;;;1.47;0.50;;;5.50;99.90;;;;;;1905546;74;25224;-91
2023/11/23 14:33:03;;;;;;;0.50;0.40;;;5.40;99.90;;;;;;1875515;75;25285;-91
2023/11/23 14:35:52;;;;;;;1.57;0.50;;;5.50;99.90;;;;;;1885104;75;25223;-91
2023/11/23 14:38:41;;;;;;;1.30;0.40;;;5.50;99.90;;;;;;1899997;75;25208;-91
2023/11/23 14:41:30;;;;;;;0.83;0.60;;;5.30;99.90;;;;;;1878810;75;25353;-91
2023/11/23 14:58:47;;;;;;;1.47;0.80;;;5.30;99.90;;;;;;1925710;73;27086;-91
2023/11/23 15:04:17;;;;;;;2.00;0.83;;;5.10;99.90;;;;;;1939127;72;27162;-91
2023/11/23 15:09:53;;;;;;;0.67;0.67;;;5.10;99.90;;;;;;1916321;73;27145;-89
2023/11/23 15:12:43;;;;;;;4.00;0.77;;;5.10;99.90;;;;;;1889673;75;25235;-89
2023/11/23 15:15:32;;;;;;;1.87;0.80;;;5.10;99.90;;;;;;1883712;74;25690;-89
2023/11/23 15:18:21;;;;;;;1.53;0.70;;;5.10;99.90;;;;;;1886021;75;25224;-89
2023/11/23 15:21:11;;;;;;;2.67;0.70;;;5.10;99.90;;;;;;1891391;75;25223;-89
2023/11/23 15:24:01;;;;;;;0.67;0.67;;;5.10;99.90;;;;;;1885321;75;25807;-89
2023/11/23 15:26:51;;;;;;;2.63;0.70;;;5.00;99.90;;;;;;1895065;75;25305;-90
2023/11/23 15:29:49;;;;;;;1.43;0.53;;;5.00;99.90;;;;;;1896750;75;25751;-90
2023/11/23 15:32:38;;;;;;;0.33;0.33;;;5.00;99.90;;;;;;1900579;75;25303;-90
2023/11/23 15:35:30;;;;;;;0.73;0.57;;;4.90;99.90;;;;;;1897313;74;25285;-90
2023/11/23 15:38:19;;;;;;;1.67;0.90;;;4.90;99.90;;;;;;1898799;75;25258;-90
2023/11/23 15:41:10;;;;;;;3.40;0.60;;;4.90;99.90;;;;;;1907652;75;25849;-90
2023/11/23 15:44:00;;;;;;;0.60;0.60;;;4.80;99.90;;;;;;1876503;75;25275;-90
2023/11/23 15:49:32;;;;;;;2.17;0.60;;;4.80;99.90;;;;;;1933009;72;27068;-91
2023/11/23 16:08:33;;;;;;;0.50;0.50;;;4.50;99.90;;;;;;1962303;72;27435;-91
2023/11/23 16:11:23;;;;;;;2.63;0.57;;;4.50;99.90;;;;;;1924769;72;25308;-90
2023/11/23 16:14:13;;;;;;;0.80;0.63;;;4.50;99.90;;;;;;1928415;73;25235;-90
2023/11/23 16:17:05;;;;;;;0.60;0.60;;;4.50;99.90;;;;;;1926149;73;25236;-91
2023/11/23 16:19:58;;;;;;;2.97;0.60;;;4.50;99.90;;;;;;1941516;73;25315;-91
2023/11/23 16:22:49;;;;;;;0.40;0.40;;;4.40;99.90;;;;;;1928276;73;25165;-91
2023/11/23 16:25:39;;;;;;;3.90;0.93;;;4.40;99.90;;;;;;1931301;73;25162;-91
2023/11/23 16:28:28;;;;;;;2.70;0.70;;;4.30;99.90;;;;;;1938916;72;25688;-90
2023/11/23 16:31:23;;;;;;;0.40;0.40;;;4.20;99.90;;;;;;1935399;73;25150;-89
2023/11/23 16:34:15;;;;;;;1.17;0.87;;;4.20;99.90;;;;;;1929654;73;25287;-90
2023/11/23 16:37:05;;;;;;;5.33;2.10;;;4.20;99.90;;;;;;1933667;73;25204;-90
2023/11/23 16:39:55;;;;;;;1.27;1.17;;;4.20;99.90;;;;;;1931071;72;25755;-91
2023/11/23 16:42:46;;;;;;;2.97;1.70;;;4.10;99.90;;;;;;1925671;73;25218;-91
2023/11/23 16:45:41;;;;;;;4.47;1.83;;;4.00;99.90;;;;;;1908014;75;25328;-91
2023/11/23 16:48:33;;;;;;;1.00;0.90;;;3.90;99.90;;;;;;1862671;76;25285;-91
2023/11/23 16:51:26;;;;;;;1.37;0.77;;;3.90;99.90;;;;;;1853342;76;25285;-91
2023/11/23 16:54:21;;;;;;;1.27;0.80;;;3.90;99.90;;;;;;1904248;73;25730;-91
2023/11/23 16:57:11;;;;;;;3.13;0.60;;;3.90;99.90;;;;;;1908048;75;25663;-91
2023/11/23 17:00:01;;;;;;;0.93;0.83;;;3.80;99.90;;;;;;1902502;73;25979;-91
2023/11/23 17:02:53;;;;;;;2.53;0.60;;;3.70;99.90;;;;;;1899365;73;25278;-90
2023/11/23 17:10:33;;;;;;;1.70;1.30;;;3.60;99.90;;;;;;1986918;71;26367;-91
2023/11/23 17:16:14;;;;;;;2.87;1.93;;;3.60;99.90;;;;;;1936073;74;27670;-91
2023/11/23 17:19:06;;;;;;;1.33;1.10;;;3.60;99.90;;;;;;1882311;75;25227;-91
2023/11/23 17:21:56;;;;;;;10.33;1.63;;;3.60;99.90;;;;;;1896423;74;25262;-91
2023/11/23 17:24:48;;;;;;;3.17;1.97;;;3.60;99.90;;;;;;1895649;74;25302;-91
2023/11/23 17:27:46;;;;;;;3.97;1.53;;;3.50;99.90;;;;;;1884646;75;25689;-91
2023/11/23 17:30:33;;;;;;;1.93;0.90;;;3.50;99.90;;;;;;1894574;74;25340;-91
2023/11/23 17:33:29;;;;;;;1.17;0.90;;;3.50;99.90;;;;;;1899203;74;25300;-91
2023/11/23 17:36:19;;;;;;;0.80;0.80;;;3.40;99.90;;;;;;1897588;75;25192;-90
2023/11/23 17:39:15;;;;;;;1.97;0.80;;;3.40;99.90;;;;;;1893903;75;25341;-91
2023/11/23 17:42:02;;;;;;;2.73;0.93;;;3.40;99.90;;;;;;1905354;75;25410;-91
2023/11/23 17:48:33;;;;;;;2.67;0.83;;;3.40;99.90;;;;;;1869150;76;25762;-91
2023/11/23 17:51:22;;;;;;;1.03;0.70;;;3.30;99.90;;;;;;1862484;76;25705;-91
2023/11/23 17:54:12;;;;;;;2.97;0.80;;;3.30;99.90;;;;;;1866627;76;25666;-91
2023/11/23 17:57:01;;;;;;;1.50;0.73;;;3.30;99.90;;;;;;1865924;76;25845;-91
2023/11/23 18:00:12;;;;;;;0.50;0.50;;;3.30;99.90;;;;;;1863831;76;25245;-91
2023/11/23 18:03:00;;;;;;;1.80;0.70;;;3.30;99.90;;;;;;1859817;76;25794;-91
2023/11/23 18:05:50;;;;;;;0.50;0.50;;;3.30;99.90;;;;;;1842449;76;25230;-91
2023/11/23 18:12:34;;;;;;;2.53;0.57;;;3.20;99.90;;;;;;1982526;71;27050;-91
2023/11/23 18:15:23;;;;;;;1.30;0.70;;;3.10;99.90;;;;;;1961587;71;25234;-91
2023/11/23 18:18:16;;;;;;;2.90;0.90;;;3.10;99.90;;;;;;2067105;69;25186;-91